createdAt,value
2018-11-23T00:02:08.325Z,32.35
2018-11-23T00:04:37.761Z,30.90
2018-11-23T00:07:08.618Z,34.13
2018-11-23T00:09:38.079Z,30.65
2018-11-23T00:12:07.467Z,32.70
2018-11-23T00:14:38.039Z,32.13
2018-11-23T00:17:07.769Z,31.87
2018-11-23T00:19:37.253Z,33.25
2018-11-23T00:22:06.734Z,33.38
2018-11-23T00:24:38.024Z,32.78
2018-11-23T00:27:07.403Z,35.25
2018-11-23T00:29:36.870Z,33.98
2018-11-23T00:32:06.641Z,31.00
2018-11-23T00:34:36.472Z,36.30
2018-11-23T00:37:06.040Z,33.60
2018-11-23T00:39:35.425Z,33.45
2018-11-23T00:42:05.800Z,33.95
2018-11-23T00:44:35.368Z,34.13
2018-11-23T00:47:05.027Z,32.08
2018-11-23T00:49:34.475Z,33.23
2018-11-23T00:52:03.927Z,34.83
2018-11-23T00:54:33.273Z,34.03
2018-11-23T00:57:02.758Z,33.70
2018-11-23T00:59:32.255Z,39.90
2018-11-23T01:02:03.796Z,33.65
2018-11-23T01:04:35.797Z,35.40
2018-11-23T01:07:05.572Z,34.33
2018-11-23T01:09:35.176Z,34.35
2018-11-23T01:12:04.759Z,32.08
2018-11-23T01:14:34.089Z,30.60
2018-11-23T01:17:03.452Z,33.65
2018-11-23T01:19:32.735Z,31.33
2018-11-23T01:22:02.232Z,33.10
2018-11-23T01:24:31.615Z,32.45
2018-11-23T01:27:00.991Z,32.58
2018-11-23T01:29:30.299Z,35.48
2018-11-23T01:31:59.702Z,32.95
2018-11-23T01:34:29.288Z,37.80
2018-11-23T01:36:58.686Z,35.40
2018-11-23T01:39:28.009Z,36.15
2018-11-23T01:41:57.395Z,33.45
2018-11-23T01:44:26.696Z,35.92
2018-11-23T01:46:57.100Z,34.80
2018-11-23T01:49:26.515Z,37.53
2018-11-23T01:51:55.821Z,34.08
2018-11-23T01:54:25.138Z,34.78
2018-11-23T01:56:55.381Z,36.23
2018-11-23T01:59:24.956Z,33.02
2018-11-23T02:01:54.399Z,36.42
2018-11-23T02:04:23.858Z,35.15
2018-11-23T02:06:53.161Z,33.28
2018-11-23T02:09:22.470Z,36.80
2018-11-23T02:11:51.790Z,35.25
2018-11-23T02:14:21.323Z,36.20
2018-11-23T02:16:50.980Z,32.55
2018-11-23T02:19:21.000Z,34.55
2018-11-23T02:21:50.513Z,37.65
2018-11-23T02:24:19.951Z,33.00
2018-11-23T02:26:50.135Z,37.30
2018-11-23T02:29:19.524Z,33.13
2018-11-23T02:31:48.833Z,35.90
2018-11-23T02:34:18.159Z,33.10
2018-11-23T02:36:47.527Z,36.08
2018-11-23T02:39:16.858Z,32.73
2018-11-23T02:41:46.339Z,35.80
2018-11-23T02:44:15.636Z,36.00
2018-11-23T02:46:45.015Z,32.13
2018-11-23T02:49:14.340Z,35.85
2018-11-23T02:51:43.695Z,32.05
2018-11-23T02:54:13.120Z,35.20
2018-11-23T02:56:45.486Z,35.68
2018-11-23T02:59:15.095Z,35.58
2018-11-23T03:01:44.451Z,34.83
2018-11-23T03:04:13.883Z,34.38
2018-11-23T03:06:43.305Z,32.40
2018-11-23T03:09:12.634Z,32.67
2018-11-23T03:11:42.163Z,34.35
2018-11-23T03:14:11.478Z,34.73
2018-11-23T03:16:41.005Z,35.50
2018-11-23T03:19:10.430Z,36.33
2018-11-23T03:21:40.035Z,34.78
2018-11-23T03:24:09.552Z,36.75
2018-11-23T03:26:38.973Z,34.58
2018-11-23T03:29:08.324Z,36.17
2018-11-23T03:31:37.787Z,32.35
2018-11-23T03:34:07.464Z,34.73
2018-11-23T03:36:36.905Z,36.38
2018-11-23T03:39:08.268Z,36.77
2018-11-23T03:41:37.743Z,32.30
2018-11-23T03:44:07.267Z,36.73
2018-11-23T03:46:36.655Z,30.55
2018-11-23T03:49:06.345Z,30.95
2018-11-23T03:51:35.699Z,31.85
2018-11-23T03:54:05.485Z,32.03
2018-11-23T03:56:34.916Z,32.10
2018-11-23T03:59:04.297Z,30.62
2018-11-23T04:01:33.615Z,29.12
2018-11-23T04:04:03.036Z,30.23
2018-11-23T04:06:32.390Z,33.67
2018-11-23T04:09:01.871Z,30.88
2018-11-23T04:11:31.191Z,29.65
2018-11-23T04:14:00.496Z,32.78
2018-11-23T04:16:29.819Z,30.55
2018-11-23T04:18:59.202Z,32.58
2018-11-23T04:21:28.640Z,31.68
2018-11-23T04:23:58.104Z,31.02
2018-11-23T04:26:27.405Z,32.53
2018-11-23T04:28:56.726Z,31.00
2018-11-23T04:31:26.152Z,31.77
2018-11-23T04:33:55.568Z,32.38
2018-11-23T04:36:24.947Z,34.38
2018-11-23T04:38:55.366Z,35.98
2018-11-23T04:41:24.799Z,33.20
2018-11-23T04:43:54.144Z,33.98
2018-11-23T04:46:23.636Z,33.88
2018-11-23T04:48:53.102Z,34.78
2018-11-23T04:51:22.508Z,31.12
2018-11-23T04:53:52.009Z,31.37
2018-11-23T04:56:21.422Z,33.45
2018-11-23T04:58:50.983Z,33.55
2018-11-23T05:01:20.729Z,35.33
2018-11-23T05:03:50.701Z,34.38
2018-11-23T05:06:20.062Z,34.27
2018-11-23T05:08:49.450Z,34.25
2018-11-23T05:11:18.859Z,33.20
2018-11-23T05:13:48.320Z,32.80
2018-11-23T05:16:17.736Z,33.00
2018-11-23T05:18:47.137Z,34.98
2018-11-23T05:21:16.509Z,35.78
2018-11-23T05:23:45.935Z,32.78
2018-11-23T05:26:15.286Z,35.92
2018-11-23T05:28:44.682Z,35.05
2018-11-23T05:31:14.142Z,34.53
2018-11-23T05:33:43.511Z,37.50
2018-11-23T05:36:12.947Z,36.73
2018-11-23T05:38:42.366Z,32.98
2018-11-23T05:44:18.048Z,31.15
2018-11-23T05:46:47.527Z,32.63
2018-11-23T05:49:16.921Z,34.08
2018-11-23T05:51:46.407Z,35.23
2018-11-23T05:54:15.778Z,31.62
2018-11-23T05:56:45.322Z,37.98
2018-11-23T05:59:14.712Z,35.20
2018-11-23T06:01:44.161Z,32.83
2018-11-23T06:04:13.599Z,35.20
2018-11-23T06:06:43.066Z,35.83
2018-11-23T06:09:12.663Z,33.40
2018-11-23T06:11:42.142Z,37.83
2018-11-23T06:14:11.771Z,36.80
2018-11-23T06:16:41.169Z,36.25
2018-11-23T06:19:10.494Z,37.65
2018-11-23T06:21:39.878Z,32.45
2018-11-23T06:24:09.191Z,37.53
2018-11-23T06:26:38.626Z,35.17
2018-11-23T06:29:07.987Z,36.95
2018-11-23T06:31:37.402Z,34.27
2018-11-23T06:34:06.751Z,36.83
2018-11-23T06:36:36.154Z,33.78
2018-11-23T06:39:07.966Z,35.33
2018-11-23T06:41:37.326Z,34.08
2018-11-23T06:44:06.830Z,34.65
2018-11-23T06:46:36.175Z,32.70
2018-11-23T06:49:05.646Z,35.92
2018-11-23T06:51:35.006Z,36.55
2018-11-23T06:54:04.500Z,33.95
2018-11-23T06:56:33.871Z,37.35
2018-11-23T06:59:03.228Z,37.30
2018-11-23T07:01:32.745Z,32.95
2018-11-23T07:04:02.318Z,34.98
2018-11-23T07:06:31.764Z,35.38
2018-11-23T07:09:01.204Z,34.43
2018-11-23T07:11:31.643Z,34.20
2018-11-23T07:14:04.094Z,33.83
2018-11-23T07:16:33.191Z,35.15
2018-11-23T07:19:02.604Z,37.42
2018-11-23T07:21:32.318Z,35.10
2018-11-23T07:24:01.800Z,37.38
2018-11-23T07:26:31.295Z,34.80
2018-11-23T07:29:01.456Z,36.75
2018-11-23T07:31:31.032Z,38.20
2018-11-23T07:34:00.323Z,38.42
2018-11-23T07:36:29.666Z,37.93
2018-11-23T07:38:59.066Z,38.83
2018-11-23T07:41:39.505Z,35.48
2018-11-23T07:44:09.032Z,34.85
2018-11-23T07:46:38.467Z,39.67
2018-11-23T07:49:08.582Z,34.95
2018-11-23T07:51:39.214Z,36.45
2018-11-23T07:54:07.546Z,35.17
2018-11-23T07:56:36.998Z,36.25
2018-11-23T07:59:06.451Z,38.53
2018-11-23T08:01:36.850Z,31.40
2018-11-23T08:04:07.420Z,37.63
2018-11-23T08:06:37.790Z,36.03
2018-11-23T08:09:09.747Z,33.88
2018-11-23T08:11:40.012Z,33.45
2018-11-23T08:14:09.384Z,31.35
2018-11-23T08:16:38.922Z,30.52
2018-11-23T08:19:08.244Z,30.12
2018-11-23T08:21:37.655Z,28.70
2018-11-23T08:24:07.072Z,27.95
2018-11-23T08:26:36.423Z,29.00
2018-11-23T08:29:05.954Z,29.02
2018-11-23T08:31:35.489Z,31.20
2018-11-23T08:34:04.967Z,30.62
2018-11-23T08:36:34.493Z,29.60
2018-11-23T08:39:04.965Z,32.73
2018-11-23T08:41:34.528Z,28.20
2018-11-23T08:44:04.188Z,30.27
2018-11-23T08:46:33.728Z,28.10
2018-11-23T08:49:03.106Z,29.30
2018-11-23T08:51:32.570Z,24.35
2018-11-23T08:54:02.109Z,25.60
2018-11-23T08:56:31.609Z,24.30
2018-11-23T08:59:01.021Z,27.85
2018-11-23T09:01:30.376Z,26.25
2018-11-23T09:03:59.952Z,27.70
2018-11-23T09:06:30.461Z,23.75
2018-11-23T09:09:00.513Z,25.25
2018-11-23T09:11:30.080Z,25.55
2018-11-23T09:13:59.646Z,23.25
2018-11-23T09:16:29.318Z,23.83
2018-11-23T09:18:58.792Z,23.07
2018-11-23T09:21:28.502Z,23.75
2018-11-23T09:23:58.123Z,23.52
2018-11-23T09:26:27.778Z,22.98
2018-11-23T09:28:57.489Z,24.75
2018-11-23T09:31:27.217Z,21.93
2018-11-23T09:33:56.985Z,24.00
2018-11-23T09:36:26.717Z,20.95
2018-11-23T09:38:56.172Z,22.60
2018-11-23T09:41:25.764Z,23.38
2018-11-23T09:43:56.187Z,21.35
2018-11-23T09:46:26.669Z,21.23
2018-11-23T09:48:56.384Z,22.10
2018-11-23T09:51:26.320Z,21.87
2018-11-23T09:53:55.830Z,19.20
2018-11-23T09:56:26.151Z,19.85
2018-11-23T09:58:55.817Z,20.10
2018-11-23T10:01:25.167Z,20.82
2018-11-23T10:03:54.621Z,20.12
2018-11-23T10:06:23.988Z,21.33
2018-11-23T10:08:53.875Z,20.80
2018-11-23T10:11:23.381Z,21.60
2018-11-23T10:13:53.490Z,21.95
2018-11-23T10:16:22.832Z,21.15
2018-11-23T10:18:53.301Z,19.17
2018-11-23T10:21:22.678Z,19.35
2018-11-23T10:23:53.193Z,20.60
2018-11-23T10:26:22.591Z,20.50
2018-11-23T10:28:53.078Z,19.30
2018-11-23T10:31:22.461Z,21.17
2018-11-23T10:33:52.112Z,22.17
2018-11-23T10:36:21.389Z,21.95
2018-11-23T10:38:50.780Z,22.62
2018-11-23T10:41:20.298Z,22.13
2018-11-23T10:43:49.716Z,21.23
2018-11-23T10:46:19.009Z,21.80
2018-11-23T10:48:48.437Z,21.52
2018-11-23T10:51:17.682Z,21.62
2018-11-23T10:53:47.036Z,21.37
2018-11-23T10:56:16.948Z,22.55
2018-11-23T10:58:46.400Z,20.00
2018-11-23T11:01:21.273Z,21.82
2018-11-23T11:03:55.996Z,19.85
2018-11-23T11:06:31.291Z,22.67
2018-11-23T11:09:00.646Z,21.55
2018-11-23T11:11:30.207Z,23.22
2018-11-23T11:13:59.884Z,20.60
2018-11-23T11:16:29.463Z,21.82
2018-11-23T11:18:58.927Z,22.37
2018-11-23T11:21:28.571Z,20.97
2018-11-23T11:23:57.904Z,22.77
2018-11-23T11:26:28.052Z,21.00
2018-11-23T11:28:57.491Z,21.75
2018-11-23T11:31:27.024Z,20.72
2018-11-23T11:33:56.513Z,21.48
2018-11-23T11:36:25.993Z,20.48
2018-11-23T11:38:56.073Z,20.50
2018-11-23T11:41:25.629Z,21.60
2018-11-23T11:43:55.130Z,22.67
2018-11-23T11:46:25.263Z,22.30
2018-11-23T11:48:54.569Z,21.10
2018-11-23T11:51:23.986Z,21.80
2018-11-23T11:53:59.374Z,20.88
2018-11-23T11:56:28.834Z,20.72
2018-11-23T11:58:58.253Z,22.67
2018-11-23T12:01:28.053Z,20.27
2018-11-23T12:03:57.934Z,21.62
2018-11-23T12:06:27.443Z,23.25
2018-11-23T12:08:58.264Z,21.15
2018-11-23T12:11:30.491Z,21.00
2018-11-23T12:14:00.826Z,21.90
2018-11-23T12:16:30.446Z,22.73
2018-11-23T12:18:59.935Z,22.00
2018-11-23T12:21:29.567Z,20.32
2018-11-23T12:23:59.215Z,20.30
2018-11-23T12:26:28.542Z,19.70
2018-11-23T12:28:58.886Z,21.97
2018-11-23T12:31:28.248Z,20.60
2018-11-23T12:33:58.696Z,18.67
2018-11-23T12:36:28.098Z,20.05
2018-11-23T12:38:57.504Z,21.10
2018-11-23T12:41:27.112Z,20.20
2018-11-23T12:43:56.693Z,20.80
2018-11-23T12:46:26.075Z,20.97
2018-11-23T12:48:55.465Z,19.10
2018-11-23T12:51:24.823Z,21.90
2018-11-23T12:53:54.673Z,20.62
2018-11-23T12:56:24.183Z,20.88
2018-11-23T12:58:53.695Z,19.00
2018-11-23T13:01:23.052Z,20.62
2018-11-23T13:03:52.802Z,22.42
2018-11-23T13:06:22.176Z,18.57
2018-11-23T13:08:54.190Z,17.98
2018-11-23T13:11:23.488Z,18.57
2018-11-23T13:13:53.048Z,20.92
2018-11-23T13:16:22.475Z,20.70
2018-11-23T13:18:52.597Z,20.52
2018-11-23T13:21:22.110Z,21.02
2018-11-23T13:23:51.623Z,19.37
2018-11-23T13:26:21.193Z,21.00
2018-11-23T13:28:50.572Z,20.48
2018-11-23T13:31:20.109Z,18.52
2018-11-23T13:33:49.831Z,20.62
2018-11-23T13:36:19.234Z,20.35
2018-11-23T13:38:48.667Z,21.52
2018-11-23T13:41:18.107Z,20.55
2018-11-23T13:43:47.475Z,20.17
2018-11-23T13:46:17.414Z,21.20
2018-11-23T13:48:46.904Z,19.98
2018-11-23T13:51:16.240Z,18.20
2018-11-23T13:53:45.744Z,18.10
2018-11-23T13:57:18.147Z,21.68
2018-11-23T13:59:47.595Z,19.65
2018-11-23T14:02:16.978Z,19.25
2018-11-23T14:04:46.351Z,20.17
2018-11-23T14:07:16.278Z,21.27
2018-11-23T14:09:45.995Z,18.85
2018-11-23T14:12:15.485Z,21.23
2018-11-23T14:14:44.830Z,20.77
2018-11-23T14:17:14.188Z,19.85
2018-11-23T14:19:43.540Z,22.42
2018-11-23T14:22:13.047Z,21.55
2018-11-23T14:24:42.346Z,20.23
2018-11-23T14:27:11.656Z,22.93
2018-11-23T14:29:41.015Z,21.12
2018-11-23T14:32:10.378Z,22.73
2018-11-23T14:34:39.759Z,21.02
2018-11-23T14:37:09.099Z,21.80
2018-11-23T14:39:38.419Z,21.35
2018-11-23T14:42:07.729Z,22.20
2018-11-23T14:44:37.162Z,24.90
2018-11-23T14:47:06.483Z,22.52
2018-11-23T14:49:36.101Z,21.07
2018-11-23T14:52:06.361Z,22.93
2018-11-23T14:54:36.599Z,22.17
2018-11-23T14:57:05.221Z,21.70
2018-11-23T14:59:35.610Z,24.35
2018-11-23T15:02:04.945Z,21.68
2018-11-23T15:04:35.377Z,21.60
2018-11-23T15:07:04.807Z,23.40
2018-11-23T15:09:34.458Z,22.05
2018-11-23T15:12:05.494Z,23.25
2018-11-23T15:14:34.851Z,23.07
2018-11-23T15:17:04.230Z,22.30
2018-11-23T15:19:33.561Z,20.88
2018-11-23T15:22:02.968Z,22.40
2018-11-23T15:24:32.303Z,25.20
2018-11-23T15:27:01.743Z,22.55
2018-11-23T15:29:31.196Z,24.82
2018-11-23T15:32:00.597Z,23.15
2018-11-23T15:34:30.089Z,24.70
2018-11-23T15:36:59.546Z,24.98
2018-11-23T15:39:28.894Z,21.93
2018-11-23T15:41:58.480Z,23.20
2018-11-23T15:44:27.948Z,25.77
2018-11-23T15:46:57.513Z,23.12
2018-11-23T15:49:27.341Z,24.35
2018-11-23T15:51:56.681Z,24.52
2018-11-23T15:54:26.051Z,23.92
2018-11-23T15:56:55.630Z,22.45
2018-11-23T15:59:25.046Z,26.37
2018-11-23T16:01:54.477Z,23.85
2018-11-23T16:04:24.966Z,23.02
2018-11-23T16:06:54.322Z,25.02
2018-11-23T16:09:23.660Z,25.95
2018-11-23T16:11:53.254Z,25.85
2018-11-23T16:14:22.681Z,25.85
2018-11-23T16:16:52.605Z,26.20
2018-11-23T16:19:22.190Z,25.82
2018-11-23T16:21:51.683Z,26.17
2018-11-23T16:24:21.097Z,27.22
2018-11-23T16:26:50.537Z,26.40
2018-11-23T16:29:19.904Z,25.90
2018-11-23T16:31:50.286Z,29.40
2018-11-23T16:34:19.678Z,34.03
2018-11-23T16:36:48.990Z,27.27
2018-11-23T16:39:18.505Z,30.43
2018-11-23T16:41:47.852Z,27.05
2018-11-23T16:44:17.331Z,27.90
2018-11-23T16:46:46.668Z,28.10
2018-11-23T16:49:16.114Z,27.30
2018-11-23T16:51:45.395Z,29.10
2018-11-23T16:54:14.743Z,28.17
2018-11-23T16:56:46.414Z,29.85
2018-11-23T16:59:15.935Z,28.80
2018-11-23T17:01:45.364Z,28.73
2018-11-23T17:04:14.827Z,28.30
2018-11-23T17:06:44.218Z,32.10
2018-11-23T17:09:13.637Z,28.05
2018-11-23T17:11:43.027Z,31.05
2018-11-23T17:14:12.455Z,30.08
2018-11-23T17:16:41.825Z,28.65
2018-11-23T17:19:11.779Z,28.62
2018-11-23T17:21:41.268Z,29.18
2018-11-23T17:24:10.621Z,27.10
2018-11-23T17:26:40.159Z,26.15
2018-11-23T17:29:09.452Z,27.85
2018-11-23T17:31:38.906Z,28.55
2018-11-23T17:34:08.278Z,28.70
2018-11-23T17:36:37.633Z,27.35
2018-11-23T17:39:07.709Z,26.77
2018-11-23T17:41:37.241Z,30.00
2018-11-23T17:44:06.706Z,27.98
2018-11-23T17:46:36.124Z,31.57
2018-11-23T17:49:05.567Z,27.98
2018-11-23T17:51:35.899Z,30.32
2018-11-23T17:54:05.443Z,28.77
2018-11-23T17:56:34.927Z,28.98
2018-11-23T17:59:04.912Z,27.87
2018-11-23T18:01:33.535Z,30.55
2018-11-23T18:04:02.866Z,30.20
2018-11-23T18:06:32.321Z,27.50
2018-11-23T18:09:01.969Z,26.68
2018-11-23T18:11:31.618Z,31.55
2018-11-23T18:14:01.016Z,27.98
2018-11-23T18:16:30.256Z,30.52
2018-11-23T18:19:00.832Z,29.52
2018-11-23T18:21:30.378Z,30.60
2018-11-23T18:23:59.700Z,30.85
2018-11-23T18:26:29.236Z,29.12
2018-11-23T18:28:58.710Z,28.45
2018-11-23T18:31:28.107Z,28.87
2018-11-23T18:33:57.433Z,27.58
2018-11-23T18:36:27.211Z,30.35
2018-11-23T18:38:56.623Z,30.50
2018-11-23T18:41:26.892Z,32.42
2018-11-23T18:43:56.530Z,28.40
2018-11-23T18:49:07.781Z,30.45
2018-11-23T18:51:39.475Z,30.88
2018-11-23T18:54:10.965Z,32.30
2018-11-23T18:56:41.330Z,34.55
2018-11-23T18:59:12.109Z,33.42
2018-11-23T19:01:43.443Z,34.60
2018-11-23T19:04:13.366Z,35.50
2018-11-23T19:06:43.113Z,35.80
2018-11-23T19:09:12.911Z,35.80
2018-11-23T19:11:42.939Z,35.28
2018-11-23T19:14:12.683Z,33.35
2018-11-23T19:16:42.350Z,32.65
2018-11-23T19:19:13.106Z,34.27
2018-11-23T19:21:43.481Z,33.48
2018-11-23T19:24:13.670Z,35.80
2018-11-23T19:26:43.881Z,36.48
2018-11-23T19:29:13.695Z,35.78
2018-11-23T19:31:43.655Z,34.60
2018-11-23T19:34:15.780Z,32.95
2018-11-23T19:36:45.499Z,35.88
2018-11-23T19:39:15.231Z,34.98
2018-11-23T19:41:45.348Z,35.90
2018-11-23T19:44:15.972Z,36.00
2018-11-23T19:46:45.677Z,36.98
2018-11-23T19:49:15.702Z,38.73
2018-11-23T19:51:46.592Z,35.28
2018-11-23T19:54:16.602Z,38.40
2018-11-23T19:56:46.553Z,36.65
2018-11-23T19:59:16.335Z,36.30
2018-11-23T20:01:48.098Z,37.48
2018-11-23T20:04:17.950Z,38.30
2018-11-23T20:06:48.092Z,42.08
2018-11-23T20:09:18.858Z,36.55
2018-11-23T20:11:49.147Z,36.63
2018-11-23T20:14:20.157Z,34.05
2018-11-23T20:16:50.503Z,33.75
2018-11-23T20:19:22.525Z,37.73
2018-11-23T20:22:00.020Z,38.75
2018-11-23T20:24:36.169Z,35.60
2018-11-23T20:27:12.164Z,37.78
2018-11-23T20:29:45.055Z,34.90
2018-11-23T20:32:21.465Z,37.33
2018-11-23T20:34:52.334Z,38.78
2018-11-23T20:37:23.491Z,39.40
2018-11-23T20:39:52.979Z,39.30
2018-11-23T20:45:32.772Z,40.73
2018-11-23T20:48:02.117Z,40.20
2018-11-23T20:50:32.162Z,39.40
2018-11-23T20:53:02.261Z,40.25
2018-11-23T20:55:31.752Z,40.60
2018-11-23T20:58:01.549Z,38.45
2018-11-23T21:00:32.112Z,39.80
2018-11-23T21:03:01.704Z,40.10
2018-11-23T21:08:50.941Z,37.53
2018-11-23T21:11:22.878Z,40.85
2018-11-23T21:13:58.361Z,41.25
2018-11-23T21:16:28.808Z,39.65
2018-11-23T21:19:21.397Z,39.50
2018-11-23T21:21:53.451Z,39.30
2018-11-23T21:24:33.326Z,38.10
2018-11-23T21:27:06.246Z,40.17
2018-11-23T21:29:37.191Z,41.48
2018-11-23T21:32:07.348Z,41.25
2018-11-23T21:34:41.355Z,43.08
2018-11-23T21:37:15.218Z,40.63
2018-11-23T21:39:46.748Z,38.92
2018-11-23T21:42:20.990Z,37.55
2018-11-23T21:44:53.382Z,44.83
2018-11-23T21:47:27.425Z,41.28
2018-11-23T21:50:06.764Z,40.23
2018-11-23T21:52:39.490Z,40.38
2018-11-23T21:55:13.907Z,44.08
2018-11-23T21:57:44.163Z,41.00
2018-11-23T22:00:15.600Z,39.13
2018-11-23T22:02:45.522Z,39.50
2018-11-23T22:05:15.291Z,40.90
2018-11-23T22:07:48.794Z,43.40
2018-11-23T22:10:19.665Z,41.08
2018-11-23T22:12:50.370Z,44.25
2018-11-23T22:15:22.389Z,42.67
2018-11-23T22:17:57.477Z,49.27
2018-11-23T22:20:27.530Z,37.75
2018-11-23T22:22:56.811Z,38.48
2018-11-23T22:25:29.794Z,42.05
2018-11-23T22:28:01.524Z,43.52
2018-11-23T22:30:40.568Z,39.18
2018-11-23T22:33:16.753Z,43.83
2018-11-23T22:35:48.928Z,42.70
2018-11-23T22:38:32.588Z,39.35
2018-11-23T22:41:14.499Z,39.50
2018-11-23T22:43:52.321Z,36.20
2018-11-23T22:46:26.473Z,40.28
2018-11-23T22:48:57.702Z,34.27
2018-11-23T22:51:35.643Z,39.50
2018-11-23T22:54:08.641Z,38.35
2018-11-23T22:56:38.943Z,36.65
2018-11-23T22:59:09.010Z,36.35
2018-11-23T23:01:39.133Z,36.58
2018-11-23T23:04:09.129Z,37.08
2018-11-23T23:06:39.590Z,36.08
2018-11-23T23:09:10.542Z,35.40
2018-11-23T23:11:47.377Z,36.77
2018-11-23T23:14:17.420Z,35.73
2018-11-23T23:16:47.333Z,36.28
2018-11-23T23:19:22.343Z,36.63
2018-11-23T23:21:52.172Z,37.98
2018-11-23T23:24:23.198Z,41.70
2018-11-23T23:26:53.344Z,41.02
2018-11-23T23:29:23.134Z,38.78
2018-11-23T23:31:54.439Z,38.28
2018-11-23T23:34:25.959Z,37.30
2018-11-23T23:36:56.523Z,39.58
2018-11-23T23:39:26.501Z,36.73
2018-11-23T23:41:57.928Z,38.13
2018-11-23T23:44:27.924Z,36.45
2018-11-23T23:46:58.186Z,37.20
2018-11-23T23:49:28.108Z,33.73
2018-11-23T23:51:58.970Z,37.50
2018-11-23T23:54:29.924Z,34.75
2018-11-23T23:57:00.819Z,36.03
2018-11-23T23:59:30.631Z,36.68
